Gimpo International Airport
RKSS : now visible

Airfield :











YOU CAN JOIN US ON...

 
LOGIN :

Register | Disclaimer

   EN    FR    IT 

 









Legend :    VFR   Marginal VFR   IFR   Intensive IFR   Very Intensive IFR
Visi :
Ceiling :
>= 8 km
>= 3000ft
5 to 8 km
1000 to 3000 ft
1500m to 5 km
500 to 1000 ft
800 to 1500m
200 to 500 ft
< 800m
< 200 ft
Symbols :   Thunderstorms  Fog  Heavy snow  Heavy precipitations  Wind > 20 kt






- Airport Elevation : 58 ft
- IATA code : GMP


RKSS - Gimpo International

CURRENT METAR :
  • 250800Z 33005KT CAVOK 07/02 Q1028 NOSIG

EXPIRED METARs :
  • 250700Z 31005KT CAVOK 08/01 Q1028 NOSIG
  • 250600Z 31004KT 270V350 CAVOK 08/01 Q1028 NOSIG

TAF TAF RKSS
Valid from the 25 at 06:00 until the 26 at 12:00 UTC


250500Z 2506/2612 33006KT 7000 FEW030 BKN180 TNM02/2522Z TX12/2605Z
BECMG 2519/2520 01007KT 4200 BR
BECMG 2522/2523 04008KT 6000 NSW



MET'MAP, your aeronautical weather chart ! - Copyright ORBIFLY December 2007 - Disclaimer

ORBIFLY MET'MAP TEAM :

Programming & Development : Alexandra Zaïnal
Concept & original design : Baudouin d'Aumeries
Assistance for programming : Marc-Olivier Méhu
Technical & hardware support : Manuel Goepfert

Contact : metmap@orbifly.com




SOURCES & CREDITS :

   NOAA       Earth
Advisory